sensor_id;sensor_type;location;lat;lon;timestamp;temperature;humidity
83289;DHT22;73193;50.866;5.420;2023-11-19T00:01:15;15.20;70.00
83289;DHT22;73193;50.866;5.420;2023-11-19T00:02:46;15.30;69.70
83289;DHT22;73193;50.866;5.420;2023-11-19T00:04:17;15.30;69.90
83289;DHT22;73193;50.866;5.420;2023-11-19T00:05:48;15.30;69.90
83289;DHT22;73193;50.866;5.420;2023-11-19T00:07:19;15.10;70.70
83289;DHT22;73193;50.866;5.420;2023-11-19T00:08:50;15.30;70.00
83289;DHT22;73193;50.866;5.420;2023-11-19T00:10:21;15.30;69.90
83289;DHT22;73193;50.866;5.420;2023-11-19T00:11:52;15.40;69.80
83289;DHT22;73193;50.866;5.420;2023-11-19T00:13:22;15.30;70.10
83289;DHT22;73193;50.866;5.420;2023-11-19T00:14:53;15.30;69.70
83289;DHT22;73193;50.866;5.420;2023-11-19T00:16:24;15.50;69.50
83289;DHT22;73193;50.866;5.420;2023-11-19T00:17:55;15.40;69.90
83289;DHT22;73193;50.866;5.420;2023-11-19T00:19:25;15.20;70.30
83289;DHT22;73193;50.866;5.420;2023-11-19T00:20:56;15.30;69.90
83289;DHT22;73193;50.866;5.420;2023-11-19T00:22:27;15.30;70.10
83289;DHT22;73193;50.866;5.420;2023-11-19T00:23:58;15.20;70.50
83289;DHT22;73193;50.866;5.420;2023-11-19T00:25:29;15.20;70.90
83289;DHT22;73193;50.866;5.420;2023-11-19T00:26:59;15.40;70.20
83289;DHT22;73193;50.866;5.420;2023-11-19T00:28:30;15.40;70.00
83289;DHT22;73193;50.866;5.420;2023-11-19T00:30:01;15.50;70.00
83289;DHT22;73193;50.866;5.420;2023-11-19T00:31:31;15.60;69.70
83289;DHT22;73193;50.866;5.420;2023-11-19T00:33:02;15.60;69.70
83289;DHT22;73193;50.866;5.420;2023-11-19T00:34:33;15.50;70.10
83289;DHT22;73193;50.866;5.420;2023-11-19T00:36:03;15.40;70.30
83289;DHT22;73193;50.866;5.420;2023-11-19T00:37:34;15.30;70.70
83289;DHT22;73193;50.866;5.420;2023-11-19T00:39:05;15.30;70.60
83289;DHT22;73193;50.866;5.420;2023-11-19T00:40:36;15.50;70.40
83289;DHT22;73193;50.866;5.420;2023-11-19T00:42:07;15.50;70.50
83289;DHT22;73193;50.866;5.420;2023-11-19T00:43:38;15.60;70.00
83289;DHT22;73193;50.866;5.420;2023-11-19T00:45:09;15.50;70.30
83289;DHT22;73193;50.866;5.420;2023-11-19T00:46:40;15.60;70.10
83289;DHT22;73193;50.866;5.420;2023-11-19T00:48:11;15.60;70.00
83289;DHT22;73193;50.866;5.420;2023-11-19T00:49:41;15.50;70.10
83289;DHT22;73193;50.866;5.420;2023-11-19T00:51:13;15.60;70.10
83289;DHT22;73193;50.866;5.420;2023-11-19T00:52:44;15.60;70.10
83289;DHT22;73193;50.866;5.420;2023-11-19T00:54:15;15.60;69.90
83289;DHT22;73193;50.866;5.420;2023-11-19T00:55:45;15.70;69.80
83289;DHT22;73193;50.866;5.420;2023-11-19T00:57:16;15.40;70.90
83289;DHT22;73193;50.866;5.420;2023-11-19T00:58:47;15.60;70.20
83289;DHT22;73193;50.866;5.420;2023-11-19T01:00:18;15.70;69.90
83289;DHT22;73193;50.866;5.420;2023-11-19T01:01:49;15.70;69.80
83289;DHT22;73193;50.866;5.420;2023-11-19T01:03:19;15.70;69.70
83289;DHT22;73193;50.866;5.420;2023-11-19T01:04:50;15.60;70.00
83289;DHT22;73193;50.866;5.420;2023-11-19T01:06:30;15.80;69.70
83289;DHT22;73193;50.866;5.420;2023-11-19T01:08:01;15.60;70.00
83289;DHT22;73193;50.866;5.420;2023-11-19T01:09:34;15.70;69.60
83289;DHT22;73193;50.866;5.420;2023-11-19T01:11:06;15.70;69.90
83289;DHT22;73193;50.866;5.420;2023-11-19T01:12:36;15.80;69.60
83289;DHT22;73193;50.866;5.420;2023-11-19T01:14:08;15.80;69.80
83289;DHT22;73193;50.866;5.420;2023-11-19T01:15:38;15.80;69.70
83289;DHT22;73193;50.866;5.420;2023-11-19T01:17:11;15.80;69.80
83289;DHT22;73193;50.866;5.420;2023-11-19T01:18:42;15.80;69.40
83289;DHT22;73193;50.866;5.420;2023-11-19T01:20:12;15.80;69.40
83289;DHT22;73193;50.866;5.420;2023-11-19T01:21:43;15.90;69.10
83289;DHT22;73193;50.866;5.420;2023-11-19T01:23:14;15.80;69.70
83289;DHT22;73193;50.866;5.420;2023-11-19T01:24:45;15.80;69.60
83289;DHT22;73193;50.866;5.420;2023-11-19T01:26:15;15.80;69.70
83289;DHT22;73193;50.866;5.420;2023-11-19T01:27:47;15.80;69.90
83289;DHT22;73193;50.866;5.420;2023-11-19T01:29:17;15.80;69.60
83289;DHT22;73193;50.866;5.420;2023-11-19T01:30:50;15.80;69.40
83289;DHT22;73193;50.866;5.420;2023-11-19T01:32:21;16.00;69.20
83289;DHT22;73193;50.866;5.420;2023-11-19T01:33:54;16.10;68.70
83289;DHT22;73193;50.866;5.420;2023-11-19T01:35:25;16.00;69.10
83289;DHT22;73193;50.866;5.420;2023-11-19T01:36:55;15.90;69.10
83289;DHT22;73193;50.866;5.420;2023-11-19T01:38:26;15.90;69.20
83289;DHT22;73193;50.866;5.420;2023-11-19T01:39:57;16.00;68.80
83289;DHT22;73193;50.866;5.420;2023-11-19T01:41:28;16.00;68.70
83289;DHT22;73193;50.866;5.420;2023-11-19T01:42:59;16.00;68.50
83289;DHT22;73193;50.866;5.420;2023-11-19T01:44:30;15.80;68.90
83289;DHT22;73193;50.866;5.420;2023-11-19T01:46:04;15.80;69.30
83289;DHT22;73193;50.866;5.420;2023-11-19T01:47:35;15.90;68.70
83289;DHT22;73193;50.866;5.420;2023-11-19T01:49:06;16.00;68.60
83289;DHT22;73193;50.866;5.420;2023-11-19T01:50:37;16.10;68.00
83289;DHT22;73193;50.866;5.420;2023-11-19T01:52:08;16.20;67.80
83289;DHT22;73193;50.866;5.420;2023-11-19T01:53:39;16.10;67.70
83289;DHT22;73193;50.866;5.420;2023-11-19T01:55:11;16.10;67.80
83289;DHT22;73193;50.866;5.420;2023-11-19T01:56:42;16.00;68.10
83289;DHT22;73193;50.866;5.420;2023-11-19T01:58:12;16.00;68.00
83289;DHT22;73193;50.866;5.420;2023-11-19T01:59:43;15.80;68.50
83289;DHT22;73193;50.866;5.420;2023-11-19T02:01:15;15.80;68.40
83289;DHT22;73193;50.866;5.420;2023-11-19T02:02:48;16.00;67.50
83289;DHT22;73193;50.866;5.420;2023-11-19T02:04:20;15.80;68.00
83289;DHT22;73193;50.866;5.420;2023-11-19T02:05:51;15.70;68.00
83289;DHT22;73193;50.866;5.420;2023-11-19T02:07:24;15.60;68.80
83289;DHT22;73193;50.866;5.420;2023-11-19T02:08:55;15.80;67.90
83289;DHT22;73193;50.866;5.420;2023-11-19T02:10:26;15.80;67.50
83289;DHT22;73193;50.866;5.420;2023-11-19T02:11:57;15.90;67.20
83289;DHT22;73193;50.866;5.420;2023-11-19T02:13:28;15.80;67.30
83289;DHT22;73193;50.866;5.420;2023-11-19T02:14:59;16.00;67.40
83289;DHT22;73193;50.866;5.420;2023-11-19T02:16:30;16.00;67.20
83289;DHT22;73193;50.866;5.420;2023-11-19T02:18:23;16.00;67.20
83289;DHT22;73193;50.866;5.420;2023-11-19T02:20:00;16.10;66.60
83289;DHT22;73193;50.866;5.420;2023-11-19T02:21:31;16.00;67.00
83289;DHT22;73193;50.866;5.420;2023-11-19T02:23:02;16.00;67.10
83289;DHT22;73193;50.866;5.420;2023-11-19T02:24:33;16.00;67.10
83289;DHT22;73193;50.866;5.420;2023-11-19T02:26:18;16.10;66.50
83289;DHT22;73193;50.866;5.420;2023-11-19T02:27:58;16.10;66.60
83289;DHT22;73193;50.866;5.420;2023-11-19T02:29:30;16.00;66.70
83289;DHT22;73193;50.866;5.420;2023-11-19T02:31:00;16.00;66.50
83289;DHT22;73193;50.866;5.420;2023-11-19T02:32:31;15.90;66.60
83289;DHT22;73193;50.866;5.420;2023-11-19T02:34:02;15.80;66.70
83289;DHT22;73193;50.866;5.420;2023-11-19T02:35:33;15.80;67.00
83289;DHT22;73193;50.866;5.420;2023-11-19T02:37:04;16.00;66.50
83289;DHT22;73193;50.866;5.420;2023-11-19T02:38:36;16.00;66.20
83289;DHT22;73193;50.866;5.420;2023-11-19T02:40:07;16.10;66.20
83289;DHT22;73193;50.866;5.420;2023-11-19T02:41:39;16.20;66.00
83289;DHT22;73193;50.866;5.420;2023-11-19T02:43:10;16.20;65.70
83289;DHT22;73193;50.866;5.420;2023-11-19T02:44:44;16.10;66.20
83289;DHT22;73193;50.866;5.420;2023-11-19T02:46:15;16.00;66.60
83289;DHT22;73193;50.866;5.420;2023-11-19T02:47:47;15.90;66.70
83289;DHT22;73193;50.866;5.420;2023-11-19T02:49:18;15.60;67.20
83289;DHT22;73193;50.866;5.420;2023-11-19T02:50:49;15.80;67.10
83289;DHT22;73193;50.866;5.420;2023-11-19T02:52:19;15.80;66.60
83289;DHT22;73193;50.866;5.420;2023-11-19T02:53:50;15.80;66.70
83289;DHT22;73193;50.866;5.420;2023-11-19T02:55:21;16.00;66.30
83289;DHT22;73193;50.866;5.420;2023-11-19T02:56:51;15.80;66.60
83289;DHT22;73193;50.866;5.420;2023-11-19T02:58:26;15.80;66.60
83289;DHT22;73193;50.866;5.420;2023-11-19T02:59:58;15.80;66.60
83289;DHT22;73193;50.866;5.420;2023-11-19T03:01:29;15.60;67.00
83289;DHT22;73193;50.866;5.420;2023-11-19T03:03:00;15.60;67.20
83289;DHT22;73193;50.866;5.420;2023-11-19T03:04:35;15.70;67.00
83289;DHT22;73193;50.866;5.420;2023-11-19T03:06:07;15.70;66.70
83289;DHT22;73193;50.866;5.420;2023-11-19T03:07:39;15.60;67.00
83289;DHT22;73193;50.866;5.420;2023-11-19T03:09:10;15.60;66.70
83289;DHT22;73193;50.866;5.420;2023-11-19T03:10:41;15.70;66.80
83289;DHT22;73193;50.866;5.420;2023-11-19T03:12:11;15.70;66.70
83289;DHT22;73193;50.866;5.420;2023-11-19T03:13:42;15.70;66.30
83289;DHT22;73193;50.866;5.420;2023-11-19T03:15:13;15.80;66.20
83289;DHT22;73193;50.866;5.420;2023-11-19T03:16:46;15.80;65.80
83289;DHT22;73193;50.866;5.420;2023-11-19T03:18:17;15.80;66.00
83289;DHT22;73193;50.866;5.420;2023-11-19T03:19:47;15.80;65.60
83289;DHT22;73193;50.866;5.420;2023-11-19T03:21:18;15.80;65.40
83289;DHT22;73193;50.866;5.420;2023-11-19T03:22:49;15.80;65.50
83289;DHT22;73193;50.866;5.420;2023-11-19T03:24:22;15.30;66.80
83289;DHT22;73193;50.866;5.420;2023-11-19T03:25:52;15.40;66.80
83289;DHT22;73193;50.866;5.420;2023-11-19T03:27:23;15.50;66.40
83289;DHT22;73193;50.866;5.420;2023-11-19T03:28:54;15.60;66.20
83289;DHT22;73193;50.866;5.420;2023-11-19T03:30:24;15.60;66.20
83289;DHT22;73193;50.866;5.420;2023-11-19T03:31:55;15.50;66.20
83289;DHT22;73193;50.866;5.420;2023-11-19T03:33:26;15.40;66.30
83289;DHT22;73193;50.866;5.420;2023-11-19T03:34:58;15.50;66.20
83289;DHT22;73193;50.866;5.420;2023-11-19T03:36:32;15.50;66.30
83289;DHT22;73193;50.866;5.420;2023-11-19T03:38:04;15.30;66.40
83289;DHT22;73193;50.866;5.420;2023-11-19T03:39:34;15.00;67.20
83289;DHT22;73193;50.866;5.420;2023-11-19T03:41:14;15.20;66.90
83289;DHT22;73193;50.866;5.420;2023-11-19T03:42:46;15.20;67.00
83289;DHT22;73193;50.866;5.420;2023-11-19T03:44:17;15.30;66.70
83289;DHT22;73193;50.866;5.420;2023-11-19T03:45:48;15.40;66.50
83289;DHT22;73193;50.866;5.420;2023-11-19T03:47:19;15.40;66.40
83289;DHT22;73193;50.866;5.420;2023-11-19T03:48:50;15.30;66.50
83289;DHT22;73193;50.866;5.420;2023-11-19T03:50:21;15.00;67.50
83289;DHT22;73193;50.866;5.420;2023-11-19T03:51:51;15.20;66.90
83289;DHT22;73193;50.866;5.420;2023-11-19T03:53:22;15.20;67.20
83289;DHT22;73193;50.866;5.420;2023-11-19T03:54:55;15.30;66.60
83289;DHT22;73193;50.866;5.420;2023-11-19T03:56:25;15.30;66.30
83289;DHT22;73193;50.866;5.420;2023-11-19T03:57:57;15.20;66.70
83289;DHT22;73193;50.866;5.420;2023-11-19T03:59:28;15.20;66.80
83289;DHT22;73193;50.866;5.420;2023-11-19T04:00:58;15.00;67.20
83289;DHT22;73193;50.866;5.420;2023-11-19T04:02:29;14.90;67.60
83289;DHT22;73193;50.866;5.420;2023-11-19T04:04:00;14.80;67.80
83289;DHT22;73193;50.866;5.420;2023-11-19T04:05:30;14.90;67.50
83289;DHT22;73193;50.866;5.420;2023-11-19T04:07:01;15.00;67.10
83289;DHT22;73193;50.866;5.420;2023-11-19T04:08:33;15.00;66.60
83289;DHT22;73193;50.866;5.420;2023-11-19T04:10:06;15.20;66.60
83289;DHT22;73193;50.866;5.420;2023-11-19T04:11:37;15.10;66.60
83289;DHT22;73193;50.866;5.420;2023-11-19T04:13:07;15.20;66.50
83289;DHT22;73193;50.866;5.420;2023-11-19T04:14:38;14.90;66.90
83289;DHT22;73193;50.866;5.420;2023-11-19T04:16:09;14.70;67.60
83289;DHT22;73193;50.866;5.420;2023-11-19T04:17:39;14.70;67.50
83289;DHT22;73193;50.866;5.420;2023-11-19T04:19:10;14.90;66.70
83289;DHT22;73193;50.866;5.420;2023-11-19T04:20:41;14.90;66.60
83289;DHT22;73193;50.866;5.420;2023-11-19T04:22:13;15.00;66.30
83289;DHT22;73193;50.866;5.420;2023-11-19T04:23:44;15.00;66.20
83289;DHT22;73193;50.866;5.420;2023-11-19T04:25:14;14.90;66.50
83289;DHT22;73193;50.866;5.420;2023-11-19T04:26:45;14.80;66.50
83289;DHT22;73193;50.866;5.420;2023-11-19T04:28:16;14.90;66.30
83289;DHT22;73193;50.866;5.420;2023-11-19T04:29:48;14.80;66.50
83289;DHT22;73193;50.866;5.420;2023-11-19T04:31:19;14.90;66.20
83289;DHT22;73193;50.866;5.420;2023-11-19T04:32:50;14.90;66.10
83289;DHT22;73193;50.866;5.420;2023-11-19T04:34:20;14.90;65.90
83289;DHT22;73193;50.866;5.420;2023-11-19T04:35:51;14.90;65.90
83289;DHT22;73193;50.866;5.420;2023-11-19T04:37:21;14.80;66.40
83289;DHT22;73193;50.866;5.420;2023-11-19T04:38:52;14.90;65.80
83289;DHT22;73193;50.866;5.420;2023-11-19T04:40:23;14.80;66.00
83289;DHT22;73193;50.866;5.420;2023-11-19T04:41:54;14.70;66.50
83289;DHT22;73193;50.866;5.420;2023-11-19T04:43:24;14.50;66.70
83289;DHT22;73193;50.866;5.420;2023-11-19T04:44:55;14.40;66.90
83289;DHT22;73193;50.866;5.420;2023-11-19T04:46:26;14.30;67.10
83289;DHT22;73193;50.866;5.420;2023-11-19T04:47:57;14.40;66.80
83289;DHT22;73193;50.866;5.420;2023-11-19T04:49:27;14.40;66.90
83289;DHT22;73193;50.866;5.420;2023-11-19T04:50:58;14.60;66.30
83289;DHT22;73193;50.866;5.420;2023-11-19T04:52:28;14.70;65.90
83289;DHT22;73193;50.866;5.420;2023-11-19T04:53:59;14.50;66.40
83289;DHT22;73193;50.866;5.420;2023-11-19T04:55:30;14.60;66.40
83289;DHT22;73193;50.866;5.420;2023-11-19T04:57:00;14.60;66.30
83289;DHT22;73193;50.866;5.420;2023-11-19T04:58:31;14.50;66.50
83289;DHT22;73193;50.866;5.420;2023-11-19T05:00:02;14.60;66.50
83289;DHT22;73193;50.866;5.420;2023-11-19T05:01:35;14.50;66.60
83289;DHT22;73193;50.866;5.420;2023-11-19T05:03:06;14.60;66.50
83289;DHT22;73193;50.866;5.420;2023-11-19T05:04:37;14.70;66.00
83289;DHT22;73193;50.866;5.420;2023-11-19T05:06:10;14.70;66.30
83289;DHT22;73193;50.866;5.420;2023-11-19T05:07:41;14.50;66.30
83289;DHT22;73193;50.866;5.420;2023-11-19T05:09:11;14.20;67.20
83289;DHT22;73193;50.866;5.420;2023-11-19T05:10:44;14.10;67.40
83289;DHT22;73193;50.866;5.420;2023-11-19T05:12:14;14.20;67.10
83289;DHT22;73193;50.866;5.420;2023-11-19T05:13:45;14.40;66.60
83289;DHT22;73193;50.866;5.420;2023-11-19T05:15:16;14.50;66.30
83289;DHT22;73193;50.866;5.420;2023-11-19T05:16:46;14.40;66.60
83289;DHT22;73193;50.866;5.420;2023-11-19T05:18:17;14.40;66.60
83289;DHT22;73193;50.866;5.420;2023-11-19T05:19:48;14.50;66.40
83289;DHT22;73193;50.866;5.420;2023-11-19T05:21:19;14.60;66.10
83289;DHT22;73193;50.866;5.420;2023-11-19T05:22:50;14.60;65.70
83289;DHT22;73193;50.866;5.420;2023-11-19T05:24:22;14.60;65.70
83289;DHT22;73193;50.866;5.420;2023-11-19T05:25:53;14.60;65.60
83289;DHT22;73193;50.866;5.420;2023-11-19T05:27:23;14.50;66.20
83289;DHT22;73193;50.866;5.420;2023-11-19T05:28:54;14.70;65.70
83289;DHT22;73193;50.866;5.420;2023-11-19T05:30:25;14.70;65.40
83289;DHT22;73193;50.866;5.420;2023-11-19T05:31:56;14.80;65.10
83289;DHT22;73193;50.866;5.420;2023-11-19T05:33:26;14.70;65.30
83289;DHT22;73193;50.866;5.420;2023-11-19T05:34:57;14.60;65.60
83289;DHT22;73193;50.866;5.420;2023-11-19T05:36:28;14.60;65.80
83289;DHT22;73193;50.866;5.420;2023-11-19T05:37:59;14.50;66.00
83289;DHT22;73193;50.866;5.420;2023-11-19T05:39:30;14.50;66.00
83289;DHT22;73193;50.866;5.420;2023-11-19T05:41:00;14.40;66.20
83289;DHT22;73193;50.866;5.420;2023-11-19T05:42:31;14.60;65.90
83289;DHT22;73193;50.866;5.420;2023-11-19T05:44:01;14.40;66.10
83289;DHT22;73193;50.866;5.420;2023-11-19T05:45:32;14.60;65.80
83289;DHT22;73193;50.866;5.420;2023-11-19T05:47:03;14.50;66.10
83289;DHT22;73193;50.866;5.420;2023-11-19T05:48:34;14.80;65.60
83289;DHT22;73193;50.866;5.420;2023-11-19T05:50:05;14.80;65.40
83289;DHT22;73193;50.866;5.420;2023-11-19T05:51:37;14.80;65.40
83289;DHT22;73193;50.866;5.420;2023-11-19T05:53:09;14.70;65.40
83289;DHT22;73193;50.866;5.420;2023-11-19T05:54:40;14.50;65.70
83289;DHT22;73193;50.866;5.420;2023-11-19T05:56:12;14.50;66.00
83289;DHT22;73193;50.866;5.420;2023-11-19T05:57:43;14.40;66.20
83289;DHT22;73193;50.866;5.420;2023-11-19T05:59:13;14.30;66.30
83289;DHT22;73193;50.866;5.420;2023-11-19T06:00:48;14.40;66.00
83289;DHT22;73193;50.866;5.420;2023-11-19T06:02:18;14.60;65.20
83289;DHT22;73193;50.866;5.420;2023-11-19T06:03:49;14.70;65.00
83289;DHT22;73193;50.866;5.420;2023-11-19T06:05:20;14.70;64.60
83289;DHT22;73193;50.866;5.420;2023-11-19T06:06:51;14.60;65.00
83289;DHT22;73193;50.866;5.420;2023-11-19T06:08:21;14.50;65.10
83289;DHT22;73193;50.866;5.420;2023-11-19T06:09:52;14.50;64.90
83289;DHT22;73193;50.866;5.420;2023-11-19T06:11:23;14.30;65.60
83289;DHT22;73193;50.866;5.420;2023-11-19T06:12:54;14.20;65.70
83289;DHT22;73193;50.866;5.420;2023-11-19T06:14:26;14.20;65.70
83289;DHT22;73193;50.866;5.420;2023-11-19T06:15:57;14.40;65.50
83289;DHT22;73193;50.866;5.420;2023-11-19T06:17:27;14.60;64.70
83289;DHT22;73193;50.866;5.420;2023-11-19T06:18:58;14.50;64.90
83289;DHT22;73193;50.866;5.420;2023-11-19T06:20:29;14.40;65.20
83289;DHT22;73193;50.866;5.420;2023-11-19T06:22:00;14.40;65.20
83289;DHT22;73193;50.866;5.420;2023-11-19T06:23:31;14.40;65.30
83289;DHT22;73193;50.866;5.420;2023-11-19T06:25:02;14.40;65.10
83289;DHT22;73193;50.866;5.420;2023-11-19T06:26:37;14.50;64.80
83289;DHT22;73193;50.866;5.420;2023-11-19T06:28:08;14.30;65.10
83289;DHT22;73193;50.866;5.420;2023-11-19T06:29:39;14.40;65.00
83289;DHT22;73193;50.866;5.420;2023-11-19T06:31:11;14.40;65.30
83289;DHT22;73193;50.866;5.420;2023-11-19T06:32:42;14.30;65.20
83289;DHT22;73193;50.866;5.420;2023-11-19T06:34:12;14.30;65.20
83289;DHT22;73193;50.866;5.420;2023-11-19T06:35:43;14.30;65.20
83289;DHT22;73193;50.866;5.420;2023-11-19T06:37:14;14.20;65.30
83289;DHT22;73193;50.866;5.420;2023-11-19T06:38:44;14.20;65.40
83289;DHT22;73193;50.866;5.420;2023-11-19T06:40:15;14.20;65.10
83289;DHT22;73193;50.866;5.420;2023-11-19T06:41:46;14.20;65.60
83289;DHT22;73193;50.866;5.420;2023-11-19T06:43:17;14.20;65.50
83289;DHT22;73193;50.866;5.420;2023-11-19T06:44:48;14.00;65.90
83289;DHT22;73193;50.866;5.420;2023-11-19T06:46:19;13.90;66.00
83289;DHT22;73193;50.866;5.420;2023-11-19T06:47:51;14.00;65.80
83289;DHT22;73193;50.866;5.420;2023-11-19T06:49:21;14.00;65.90
83289;DHT22;73193;50.866;5.420;2023-11-19T06:50:52;14.20;65.30
83289;DHT22;73193;50.866;5.420;2023-11-19T06:52:23;14.00;65.60
83289;DHT22;73193;50.866;5.420;2023-11-19T06:53:54;13.90;65.90
83289;DHT22;73193;50.866;5.420;2023-11-19T06:55:25;13.90;66.00
83289;DHT22;73193;50.866;5.420;2023-11-19T06:56:56;13.90;65.80
83289;DHT22;73193;50.866;5.420;2023-11-19T06:58:27;14.00;65.70
83289;DHT22;73193;50.866;5.420;2023-11-19T06:59:58;14.10;65.60
83289;DHT22;73193;50.866;5.420;2023-11-19T07:01:34;14.10;65.20
83289;DHT22;73193;50.866;5.420;2023-11-19T07:03:06;14.20;65.30
83289;DHT22;73193;50.866;5.420;2023-11-19T07:04:39;14.10;65.30
83289;DHT22;73193;50.866;5.420;2023-11-19T07:06:10;14.10;65.30
83289;DHT22;73193;50.866;5.420;2023-11-19T07:07:41;14.00;65.60
83289;DHT22;73193;50.866;5.420;2023-11-19T07:09:11;14.00;65.50
83289;DHT22;73193;50.866;5.420;2023-11-19T07:10:44;14.00;65.60
83289;DHT22;73193;50.866;5.420;2023-11-19T07:12:17;14.00;65.50
83289;DHT22;73193;50.866;5.420;2023-11-19T07:13:48;14.00;65.50
83289;DHT22;73193;50.866;5.420;2023-11-19T07:15:19;14.00;65.60
83289;DHT22;73193;50.866;5.420;2023-11-19T07:16:49;14.00;65.40
83289;DHT22;73193;50.866;5.420;2023-11-19T07:18:21;14.00;65.40
83289;DHT22;73193;50.866;5.420;2023-11-19T07:19:52;14.00;65.50
83289;DHT22;73193;50.866;5.420;2023-11-19T07:21:23;14.00;65.60
83289;DHT22;73193;50.866;5.420;2023-11-19T07:22:53;13.90;65.80
83289;DHT22;73193;50.866;5.420;2023-11-19T07:24:25;13.80;65.80
83289;DHT22;73193;50.866;5.420;2023-11-19T07:25:58;13.70;66.10
83289;DHT22;73193;50.866;5.420;2023-11-19T07:27:29;13.70;66.00
83289;DHT22;73193;50.866;5.420;2023-11-19T07:29:00;13.90;65.90
83289;DHT22;73193;50.866;5.420;2023-11-19T07:30:32;13.90;65.30
83289;DHT22;73193;50.866;5.420;2023-11-19T07:32:03;13.90;65.40
83289;DHT22;73193;50.866;5.420;2023-11-19T07:33:33;13.90;65.40
83289;DHT22;73193;50.866;5.420;2023-11-19T07:35:07;13.90;65.30
83289;DHT22;73193;50.866;5.420;2023-11-19T07:36:38;13.70;65.40
83289;DHT22;73193;50.866;5.420;2023-11-19T07:38:08;13.80;65.10
83289;DHT22;73193;50.866;5.420;2023-11-19T07:39:39;13.80;65.30
83289;DHT22;73193;50.866;5.420;2023-11-19T07:41:11;13.80;65.10
83289;DHT22;73193;50.866;5.420;2023-11-19T07:42:43;13.90;65.10
83289;DHT22;73193;50.866;5.420;2023-11-19T07:44:14;13.90;65.00
83289;DHT22;73193;50.866;5.420;2023-11-19T07:45:44;13.90;64.70
83289;DHT22;73193;50.866;5.420;2023-11-19T07:47:16;13.90;64.70
83289;DHT22;73193;50.866;5.420;2023-11-19T07:48:47;13.80;64.70
83289;DHT22;73193;50.866;5.420;2023-11-19T07:50:17;13.80;64.70
83289;DHT22;73193;50.866;5.420;2023-11-19T07:51:50;13.80;65.10
83289;DHT22;73193;50.866;5.420;2023-11-19T07:53:21;13.80;64.80
83289;DHT22;73193;50.866;5.420;2023-11-19T07:54:52;13.60;65.20
83289;DHT22;73193;50.866;5.420;2023-11-19T07:56:22;13.70;65.40
83289;DHT22;73193;50.866;5.420;2023-11-19T07:57:53;13.80;65.00
83289;DHT22;73193;50.866;5.420;2023-11-19T07:59:23;13.90;64.70
83289;DHT22;73193;50.866;5.420;2023-11-19T08:00:54;13.80;64.90
83289;DHT22;73193;50.866;5.420;2023-11-19T08:02:25;13.80;64.80
83289;DHT22;73193;50.866;5.420;2023-11-19T08:03:55;13.70;65.20
83289;DHT22;73193;50.866;5.420;2023-11-19T08:05:26;13.90;64.90
83289;DHT22;73193;50.866;5.420;2023-11-19T08:06:57;13.90;64.70
83289;DHT22;73193;50.866;5.420;2023-11-19T08:08:27;14.00;64.60
83289;DHT22;73193;50.866;5.420;2023-11-19T08:10:00;14.10;64.30
83289;DHT22;73193;50.866;5.420;2023-11-19T08:11:30;14.00;64.20
83289;DHT22;73193;50.866;5.420;2023-11-19T08:13:01;14.10;64.30
83289;DHT22;73193;50.866;5.420;2023-11-19T08:14:32;14.00;64.50
83289;DHT22;73193;50.866;5.420;2023-11-19T08:16:03;14.10;64.10
83289;DHT22;73193;50.866;5.420;2023-11-19T08:17:34;14.30;63.70
83289;DHT22;73193;50.866;5.420;2023-11-19T08:19:05;14.20;63.80
83289;DHT22;73193;50.866;5.420;2023-11-19T08:20:35;14.30;63.90
83289;DHT22;73193;50.866;5.420;2023-11-19T08:22:06;14.30;63.50
83289;DHT22;73193;50.866;5.420;2023-11-19T08:23:37;14.20;63.80
83289;DHT22;73193;50.866;5.420;2023-11-19T08:25:08;14.20;63.70
83289;DHT22;73193;50.866;5.420;2023-11-19T08:26:39;14.20;63.60
83289;DHT22;73193;50.866;5.420;2023-11-19T08:28:10;14.30;63.60
83289;DHT22;73193;50.866;5.420;2023-11-19T08:29:40;14.10;63.90
83289;DHT22;73193;50.866;5.420;2023-11-19T08:31:11;14.30;63.90
83289;DHT22;73193;50.866;5.420;2023-11-19T08:32:42;14.40;63.40
83289;DHT22;73193;50.866;5.420;2023-11-19T08:34:12;14.40;63.40
83289;DHT22;73193;50.866;5.420;2023-11-19T08:35:43;14.50;63.30
83289;DHT22;73193;50.866;5.420;2023-11-19T08:37:14;14.50;63.10
83289;DHT22;73193;50.866;5.420;2023-11-19T08:38:44;14.40;63.40
83289;DHT22;73193;50.866;5.420;2023-11-19T08:40:15;14.50;63.10
83289;DHT22;73193;50.866;5.420;2023-11-19T08:41:46;14.60;62.90
83289;DHT22;73193;50.866;5.420;2023-11-19T08:43:17;14.60;62.90
83289;DHT22;73193;50.866;5.420;2023-11-19T08:44:50;14.60;62.90
83289;DHT22;73193;50.866;5.420;2023-11-19T08:46:24;14.60;63.00
83289;DHT22;73193;50.866;5.420;2023-11-19T08:47:57;14.60;63.10
83289;DHT22;73193;50.866;5.420;2023-11-19T08:49:28;14.60;63.10
83289;DHT22;73193;50.866;5.420;2023-11-19T08:50:58;14.50;63.20
83289;DHT22;73193;50.866;5.420;2023-11-19T08:52:29;14.60;63.30
83289;DHT22;73193;50.866;5.420;2023-11-19T08:54:00;14.70;62.80
83289;DHT22;73193;50.866;5.420;2023-11-19T08:55:30;14.80;62.90
83289;DHT22;73193;50.866;5.420;2023-11-19T08:57:02;14.90;62.60
83289;DHT22;73193;50.866;5.420;2023-11-19T08:58:33;14.70;63.20
83289;DHT22;73193;50.866;5.420;2023-11-19T09:00:04;14.80;62.70
83289;DHT22;73193;50.866;5.420;2023-11-19T09:01:38;14.80;63.00
83289;DHT22;73193;50.866;5.420;2023-11-19T09:03:08;14.90;62.80
83289;DHT22;73193;50.866;5.420;2023-11-19T09:04:39;14.90;62.80
83289;DHT22;73193;50.866;5.420;2023-11-19T09:06:11;15.00;62.60
83289;DHT22;73193;50.866;5.420;2023-11-19T09:07:42;15.00;62.40
83289;DHT22;73193;50.866;5.420;2023-11-19T09:09:13;15.00;62.70
83289;DHT22;73193;50.866;5.420;2023-11-19T09:10:44;14.90;62.50
83289;DHT22;73193;50.866;5.420;2023-11-19T09:12:15;15.00;63.00
83289;DHT22;73193;50.866;5.420;2023-11-19T09:13:45;15.00;62.50
83289;DHT22;73193;50.866;5.420;2023-11-19T09:15:16;15.00;62.20
83289;DHT22;73193;50.866;5.420;2023-11-19T09:16:47;15.00;62.50
83289;DHT22;73193;50.866;5.420;2023-11-19T09:18:17;15.00;62.30
83289;DHT22;73193;50.866;5.420;2023-11-19T09:19:48;15.00;62.20
83289;DHT22;73193;50.866;5.420;2023-11-19T09:21:19;14.90;62.50
83289;DHT22;73193;50.866;5.420;2023-11-19T09:22:49;14.90;63.00
83289;DHT22;73193;50.866;5.420;2023-11-19T09:24:21;15.10;62.40
83289;DHT22;73193;50.866;5.420;2023-11-19T09:25:52;15.00;62.20
83289;DHT22;73193;50.866;5.420;2023-11-19T09:27:22;15.20;62.40
83289;DHT22;73193;50.866;5.420;2023-11-19T09:28:53;15.10;62.20
83289;DHT22;73193;50.866;5.420;2023-11-19T09:30:24;15.20;62.10
83289;DHT22;73193;50.866;5.420;2023-11-19T09:31:54;15.20;62.50
83289;DHT22;73193;50.866;5.420;2023-11-19T09:33:25;15.20;62.00
83289;DHT22;73193;50.866;5.420;2023-11-19T09:34:56;15.20;62.10
83289;DHT22;73193;50.866;5.420;2023-11-19T09:36:27;15.50;61.90